Salinas, Brazil
Current Conditions -  °F | °C
As of 10:00 AM on Monday 20 Oct 2014 (Local Time) from SBMK Reporting Station
Scattered Clouds Scattered Clouds  
Wind Chill: 88°   Ceiling: Unl
Heat Index: 88°   Visibility: 4mi
Dew Point: 54°   Wind: 6mph
Humidity: 31%   Direction: 130°SE
Pressure: 30"   Gusts: NA
Location:  16.17°S, 42.29°W
Report Text: SBMK 201300Z 13005KT 060V200 6000 FEW040 SCT045 31/12 Q1016
Loading
Personal Weather Stations






























Interactive Weather Map
Tropical Storm Tracking
New forecast layout! Learn more

10-Day Weather Forecast

Advertisements
Track Severe Weather on mobile